Ellison Bay, WI (54210)

1:49 PM CST on November 27, 2014 (GMT -0600)
2 miles North of town | Change Station
CLOSE
Current Station
Personal Weather Station
Location: Sister Bay, WI
Elevation: 710 ft
Nearby Weather Stations
Active Advisory: Special Statement

Elev 710 ft 45.22 °N, 87.11 °W | Updated 1 minute ago

Clear
Clear
17.2 °F
Feels Like 5 °F
N
11.0
Wind Variable Wind from NNW
Gusts 20.0 mph

Today
High -- | Low -- °F
--% Chance of Precip.
Yesterday
High -- | Low -- °F
Precip. -- in
7:02 AM 4:09 PM
Waxing Crescent, 32% visible
Pressure 30.32 in
Visibility 10.0 miles
Clouds Clear
Windchill 5 °F
Dew Point 4 °F
Humidity 55%
Rainfall -999.00 in
Snow Depth Not available.
UV 1 out of 12
Pollen .10 out of 12
Air Quality Not available.
Flu Activity Not available.
METAR KMNM 271935Z AUTO 35009KT 10SM CLR M08/M17 A3032 RMK AO1

More Conditions Fewer Conditions

Pressure 30.32 in
Visibility 10.0 miles
Clouds Clear
Windchill 5 °F
Dew Point 4 °F
Humidity 55%
Rainfall -999.00 in
Snow Depth Not available.
UV 1 out of 12
Pollen .10 out of 12
Air Quality Not available.
Flu Activity Not available.
METAR KMNM 271935Z AUTO 35009KT 10SM CLR M08/M17 A3032 RMK AO1

More Conditions Fewer Conditions

10-Day Weather Forecast

Almanac

Astronomy

Nov. 27, 2014 Rise Set
Actual Time
Civil Twilight
Nautical Twilight
Astronomical Twilight
Moon
Length of Visible Light
Length of Day
Tomorrow will be .
, % of the Moon is Illuminated

Today's Extremes

State Highs State Lows

Community

WunderPhotos

Upload Photos

1,774,094 photos uploaded!

WunderBlogs® & News

Nearby

Air Quality

  Air Quality AQ Index Pollutant
Not available.

Snow Depth

Station Depth Elevation

Earthquake Activity

City Distance Mag. Time & Date
Minimum magnitude displayed is 2.5.

Coastal Water Temperatures

Place Temperature

Nearby Weather Stations